createdAt,value
2024-04-18T00:02:30.166Z,6.25
2024-04-18T00:05:34.903Z,5.03
2024-04-18T00:08:39.576Z,5.88
2024-04-18T00:11:43.058Z,4.68
2024-04-18T00:14:52.407Z,3.65
2024-04-18T00:17:54.943Z,4.55
2024-04-18T00:20:59.681Z,5.77
2024-04-18T00:24:01.684Z,4.53
2024-04-18T00:27:06.468Z,4.70
2024-04-18T00:30:11.727Z,5.25
2024-04-18T00:33:16.405Z,4.50
2024-04-18T00:36:18.493Z,4.77
2024-04-18T00:39:23.307Z,4.15
2024-04-18T00:42:27.932Z,4.32
2024-04-18T00:45:32.674Z,3.42
2024-04-18T00:48:38.009Z,5.20
2024-04-18T00:51:42.941Z,4.10
2024-04-18T00:54:44.899Z,4.28
2024-04-18T00:57:50.339Z,4.25
2024-04-18T01:00:58.012Z,4.78
2024-04-18T01:04:03.573Z,4.20
2024-04-18T01:07:05.985Z,4.53
2024-04-18T01:10:11.371Z,6.00
2024-04-18T01:13:13.512Z,5.05
2024-04-18T01:16:22.300Z,4.60
2024-04-18T01:19:24.646Z,8.15
2024-04-18T01:22:31.123Z,4.63
2024-04-18T01:25:33.519Z,4.70
2024-04-18T01:28:41.022Z,4.43
2024-04-18T01:31:43.139Z,5.38
2024-04-18T01:34:48.128Z,5.50
2024-04-18T01:37:50.372Z,5.00
2024-04-18T01:40:55.183Z,4.57
2024-04-18T01:43:59.991Z,4.50
2024-04-18T01:47:04.543Z,4.65
2024-04-18T01:50:06.604Z,5.10
2024-04-18T01:53:11.087Z,5.63
2024-04-18T01:56:13.162Z,6.72
2024-04-18T01:59:20.547Z,6.60
2024-04-18T02:02:22.653Z,6.82
2024-04-18T02:05:27.384Z,6.78
2024-04-18T02:08:29.331Z,5.23
2024-04-18T02:11:34.066Z,6.30
2024-04-18T02:14:41.309Z,6.65
2024-04-18T02:17:43.335Z,6.32
2024-04-18T02:20:47.894Z,6.30
2024-04-18T02:23:49.973Z,6.30
2024-04-18T02:26:54.470Z,6.60
2024-04-18T02:29:59.165Z,5.20
2024-04-18T02:33:04.192Z,7.40
2024-04-18T02:36:09.209Z,6.40
2024-04-18T02:39:11.177Z,7.13
2024-04-18T02:42:17.581Z,7.40
2024-04-18T02:45:24.949Z,7.53
2024-04-18T02:48:29.697Z,7.30
2024-04-18T02:51:32.092Z,5.70
2024-04-18T02:54:36.841Z,7.60
2024-04-18T02:57:38.907Z,5.60
2024-04-18T03:00:46.164Z,5.78
2024-04-18T03:03:48.431Z,5.25
2024-04-18T03:06:53.239Z,5.22
2024-04-18T03:09:55.274Z,6.13
2024-04-18T03:12:59.954Z,6.13
2024-04-18T03:16:04.844Z,6.10
2024-04-18T03:19:14.630Z,5.70
2024-04-18T03:22:19.574Z,5.70
2024-04-18T03:25:21.624Z,6.60
2024-04-18T03:28:26.250Z,4.90
2024-04-18T03:31:33.591Z,5.22
2024-04-18T03:34:35.707Z,5.57
2024-04-18T03:37:40.434Z,4.82
2024-04-18T03:40:45.236Z,5.03
2024-04-18T03:43:49.890Z,5.75
2024-04-18T03:46:57.053Z,4.45
2024-04-18T03:50:01.760Z,5.28
2024-04-18T03:53:05.118Z,5.63
2024-04-18T03:56:09.794Z,4.70
2024-04-18T03:59:11.695Z,5.95
2024-04-18T04:02:19.151Z,4.97
2024-04-18T04:05:23.676Z,5.93
2024-04-18T04:08:25.822Z,5.53
2024-04-18T04:11:32.903Z,5.67
2024-04-18T04:14:35.119Z,5.07
2024-04-18T04:17:47.860Z,4.70
2024-04-18T04:20:49.947Z,4.65
2024-04-18T04:23:55.137Z,4.50
2024-04-18T04:26:57.076Z,4.60
2024-04-18T04:30:02.173Z,4.90
2024-04-18T04:33:09.481Z,6.30
2024-04-18T04:36:11.409Z,5.07
2024-04-18T04:39:16.117Z,4.63
2024-04-18T04:42:18.213Z,6.77
2024-04-18T04:45:22.762Z,7.22
2024-04-18T04:48:32.148Z,6.93
2024-04-18T04:51:35.780Z,6.50
2024-04-18T04:54:43.485Z,7.43
2024-04-18T04:57:48.477Z,6.73
2024-04-18T05:00:55.072Z,6.80
2024-04-18T05:04:00.095Z,6.95
2024-04-18T05:07:04.841Z,6.38
2024-04-18T05:10:08.777Z,6.72
2024-04-18T05:13:13.651Z,8.00
2024-04-18T05:16:16.229Z,9.50
2024-04-18T05:19:24.143Z,8.70
2024-04-18T05:22:28.798Z,7.55
2024-04-18T05:25:30.830Z,8.75
2024-04-18T05:28:42.400Z,8.27
2024-04-18T05:31:44.347Z,8.55
2024-04-18T05:34:51.666Z,8.80
2024-04-18T05:37:56.801Z,8.10
2024-04-18T05:41:01.462Z,8.77
2024-04-18T05:44:06.032Z,8.00
2024-04-18T05:47:11.326Z,7.95
2024-04-18T05:50:18.536Z,10.15
2024-04-18T05:53:23.238Z,9.82
2024-04-18T05:56:27.935Z,12.55
2024-04-18T05:59:32.615Z,10.87
2024-04-18T06:02:37.310Z,10.95
2024-04-18T06:05:44.588Z,10.13
2024-04-18T06:08:51.331Z,12.88
2024-04-18T06:11:56.026Z,10.88
2024-04-18T06:15:01.230Z,10.77
2024-04-18T06:18:06.278Z,13.68
2024-04-18T06:21:14.045Z,11.43
2024-04-18T06:24:18.736Z,11.57
2024-04-18T06:27:23.464Z,10.57
2024-04-18T06:30:28.085Z,12.83
2024-04-18T06:33:33.259Z,14.05
2024-04-18T06:36:40.762Z,12.95
2024-04-18T06:39:45.988Z,15.77
2024-04-18T06:42:50.721Z,13.70
2024-04-18T06:45:56.548Z,13.33
2024-04-18T06:49:01.296Z,12.60
2024-04-18T06:52:09.111Z,12.57
2024-04-18T06:55:13.647Z,8.13
2024-04-18T06:58:18.325Z,6.65
2024-04-18T07:01:22.982Z,5.03
2024-04-18T07:04:27.743Z,5.30
2024-04-18T07:07:35.102Z,5.70
2024-04-18T07:10:39.650Z,5.43
2024-04-18T07:13:44.300Z,5.82
2024-04-18T07:16:48.793Z,8.37
2024-04-18T07:19:53.447Z,5.07
2024-04-18T07:23:00.623Z,7.50
2024-04-18T07:26:05.329Z,6.72
2024-04-18T07:29:09.834Z,6.35
2024-04-18T07:32:14.522Z,4.90
2024-04-18T07:35:19.214Z,4.60
2024-04-18T07:38:26.801Z,3.10
2024-04-18T07:41:31.453Z,2.95
2024-04-18T07:44:36.124Z,5.10
2024-04-18T07:47:41.661Z,4.03
2024-04-18T07:50:46.396Z,3.15
2024-04-18T07:53:53.528Z,3.72
2024-04-18T07:56:58.398Z,2.92
2024-04-18T08:00:05.792Z,2.58
2024-04-18T08:03:13.003Z,3.43
2024-04-18T08:09:29.973Z,4.35
2024-04-18T08:12:40.364Z,3.25
2024-04-18T08:18:55.520Z,2.97
2024-04-18T08:22:01.668Z,2.35
2024-04-18T08:25:10.580Z,2.25
2024-04-18T08:28:15.487Z,2.85
2024-04-18T08:31:19.969Z,2.78
2024-04-18T08:34:25.253Z,1.70
2024-04-18T08:37:30.328Z,3.88
2024-04-18T08:40:37.708Z,1.85
2024-04-18T08:43:45.255Z,1.90
2024-04-18T08:46:53.167Z,3.15
2024-04-18T08:49:58.493Z,2.20
2024-04-18T08:53:04.041Z,2.08
2024-04-18T08:56:14.141Z,3.10
2024-04-18T08:59:18.796Z,2.58
2024-04-18T09:02:24.297Z,2.72
2024-04-18T09:05:28.994Z,1.93
2024-04-18T09:08:34.866Z,1.60
2024-04-18T09:11:42.058Z,2.70
2024-04-18T09:14:46.924Z,3.55
2024-04-18T09:18:03.444Z,2.90
2024-04-18T09:21:11.199Z,2.47
2024-04-18T09:24:15.882Z,2.33
2024-04-18T09:27:23.505Z,1.73
2024-04-18T09:30:28.923Z,2.95
2024-04-18T09:33:35.848Z,2.35
2024-04-18T09:36:43.381Z,2.50
2024-04-18T09:39:49.872Z,2.35
2024-04-18T09:43:02.187Z,2.60
2024-04-18T09:46:09.714Z,2.90
2024-04-18T09:49:15.544Z,3.05
2024-04-18T09:52:20.957Z,3.47
2024-04-18T09:55:28.660Z,2.03
2024-04-18T09:58:39.527Z,3.35
2024-04-18T10:01:45.979Z,1.90
2024-04-18T10:04:50.851Z,1.55
2024-04-18T10:07:57.695Z,1.80
2024-04-18T10:11:10.028Z,1.52
2024-04-18T10:14:18.247Z,2.35
2024-04-18T10:17:26.766Z,1.92
2024-04-18T10:20:31.893Z,1.75
2024-04-18T10:23:36.614Z,2.47
2024-04-18T10:26:41.518Z,3.27
2024-04-18T10:29:59.003Z,1.70
2024-04-18T10:33:03.780Z,2.42
2024-04-18T10:36:11.296Z,2.33
2024-04-18T10:39:32.511Z,3.50
2024-04-18T10:42:41.200Z,1.90
2024-04-18T10:45:49.214Z,1.77
2024-04-18T10:48:58.397Z,2.30
2024-04-18T10:52:05.038Z,3.67
2024-04-18T10:55:10.227Z,3.85
2024-04-18T10:58:16.700Z,2.60
2024-04-18T11:01:24.140Z,2.10
2024-04-18T11:04:29.801Z,3.67
2024-04-18T11:07:34.360Z,2.53
2024-04-18T11:10:41.335Z,1.52
2024-04-18T11:13:46.069Z,2.15
2024-04-18T11:17:01.826Z,3.07
2024-04-18T11:20:07.205Z,2.03
2024-04-18T11:23:15.544Z,2.85
2024-04-18T11:26:21.917Z,3.05
2024-04-18T11:29:29.217Z,2.92
2024-04-18T11:32:36.940Z,3.07
2024-04-18T11:35:41.994Z,2.97
2024-04-18T11:38:46.670Z,2.72
2024-04-18T11:41:51.142Z,1.95
2024-04-18T11:44:55.862Z,2.30
2024-04-18T11:48:03.148Z,2.40
2024-04-18T11:51:08.149Z,3.47
2024-04-18T11:54:12.704Z,3.38
2024-04-18T11:57:17.579Z,4.85
2024-04-18T12:00:22.224Z,2.00
2024-04-18T12:03:32.083Z,2.07
2024-04-18T12:06:36.826Z,1.53
2024-04-18T12:09:44.427Z,3.15
2024-04-18T12:12:49.197Z,2.17
2024-04-18T12:15:53.962Z,3.65
2024-04-18T12:19:01.187Z,2.57
2024-04-18T12:22:10.317Z,2.90
2024-04-18T12:25:14.848Z,2.53
2024-04-18T12:28:19.390Z,2.35
2024-04-18T12:31:24.072Z,2.45
2024-04-18T12:34:31.545Z,2.10
2024-04-18T12:37:36.112Z,2.87
2024-04-18T12:40:40.724Z,2.42
2024-04-18T12:43:46.074Z,2.45
2024-04-18T12:46:50.682Z,2.00
2024-04-18T12:49:57.900Z,3.53
2024-04-18T12:53:02.546Z,3.20
2024-04-18T12:56:07.787Z,2.73
2024-04-18T12:59:12.538Z,2.95
2024-04-18T13:02:18.507Z,2.47
2024-04-18T13:05:26.158Z,2.00
2024-04-18T13:08:30.992Z,2.28
2024-04-18T13:11:35.728Z,1.43
2024-04-18T13:14:40.251Z,2.05
2024-04-18T13:17:46.562Z,2.30
2024-04-18T13:20:53.890Z,1.60
2024-04-18T13:23:58.512Z,1.70
2024-04-18T13:27:03.459Z,2.57
2024-04-18T13:30:09.149Z,2.13
2024-04-18T13:33:14.008Z,2.65
2024-04-18T13:36:21.415Z,3.33
2024-04-18T13:39:26.199Z,1.58
2024-04-18T13:42:30.800Z,2.03
2024-04-18T13:45:36.667Z,1.63
2024-04-18T13:48:41.546Z,3.95
2024-04-18T13:51:48.972Z,1.05
2024-04-18T13:54:53.573Z,1.90
2024-04-18T13:57:59.842Z,1.67
2024-04-18T14:01:04.715Z,1.77
2024-04-18T14:04:09.327Z,1.50
2024-04-18T14:07:16.725Z,0.88
2024-04-18T14:10:22.129Z,1.60
2024-04-18T14:13:26.912Z,2.10
2024-04-18T14:16:47.289Z,2.85
2024-04-18T14:19:52.035Z,1.45
2024-04-18T14:22:59.181Z,1.38
2024-04-18T14:26:03.927Z,1.83
2024-04-18T14:29:08.430Z,2.30
2024-04-18T14:32:15.925Z,1.42
2024-04-18T14:35:20.447Z,1.98
2024-04-18T14:38:27.877Z,3.53
2024-04-18T14:41:32.906Z,2.35
2024-04-18T14:44:38.152Z,2.40
2024-04-18T14:47:42.933Z,0.77
2024-04-18T14:50:53.749Z,2.33
2024-04-18T14:54:01.261Z,2.13
2024-04-18T14:57:06.558Z,1.23
2024-04-18T15:00:12.081Z,2.60
2024-04-18T15:03:17.248Z,2.15
2024-04-18T15:06:22.617Z,1.15
2024-04-18T15:09:30.164Z,1.27
2024-04-18T15:12:35.064Z,1.80
2024-04-18T15:15:40.128Z,1.43
2024-04-18T15:18:45.020Z,1.38
2024-04-18T15:21:49.943Z,1.67
2024-04-18T15:24:57.311Z,2.45
2024-04-18T15:28:02.141Z,1.85
2024-04-18T15:31:07.269Z,1.53
2024-04-18T15:34:12.473Z,1.60
2024-04-18T15:37:17.138Z,1.20
2024-04-18T15:40:24.700Z,1.73
2024-04-18T15:43:29.773Z,1.10
2024-04-18T15:46:34.607Z,1.20
2024-04-18T15:49:39.610Z,1.95
2024-04-18T15:52:46.761Z,1.65
2024-04-18T15:55:54.367Z,2.10
2024-04-18T15:59:00.762Z,2.22
2024-04-18T16:02:09.590Z,1.43
2024-04-18T16:05:14.236Z,2.15
2024-04-18T16:08:19.135Z,1.50
2024-04-18T16:11:26.569Z,2.03
2024-04-18T16:14:31.213Z,3.63
2024-04-18T16:17:36.009Z,1.30
2024-04-18T16:20:40.498Z,1.60
2024-04-18T16:23:44.995Z,1.65
2024-04-18T16:26:52.273Z,1.50
2024-04-18T16:29:56.946Z,2.05
2024-04-18T16:33:01.541Z,2.10
2024-04-18T16:36:06.971Z,1.33
2024-04-18T16:39:12.159Z,1.45
2024-04-18T16:42:19.720Z,1.30
2024-04-18T16:45:24.236Z,2.42
2024-04-18T16:48:29.026Z,1.95
2024-04-18T16:51:34.019Z,1.30
2024-04-18T16:54:38.722Z,2.60
2024-04-18T16:57:46.499Z,2.63
2024-04-18T17:00:51.593Z,4.22
2024-04-18T17:03:56.453Z,2.92
2024-04-18T17:07:01.400Z,2.35
2024-04-18T17:10:07.298Z,2.67
2024-04-18T17:13:14.601Z,1.50
2024-04-18T17:16:19.433Z,1.83
2024-04-18T17:19:24.401Z,2.83
2024-04-18T17:22:29.551Z,2.05
2024-04-18T17:25:34.104Z,1.90
2024-04-18T17:28:41.546Z,1.23
2024-04-18T17:31:46.359Z,1.80
2024-04-18T17:34:51.185Z,2.35
2024-04-18T17:37:55.818Z,1.52
2024-04-18T17:41:03.683Z,1.30
2024-04-18T17:44:11.432Z,2.33
2024-04-18T17:47:16.100Z,2.42
2024-04-18T17:50:20.746Z,1.80
2024-04-18T17:53:25.379Z,1.65
2024-04-18T17:56:30.175Z,2.17
2024-04-18T17:59:37.733Z,2.63
2024-04-18T18:02:42.464Z,2.65
2024-04-18T18:05:47.707Z,3.45
2024-04-18T18:08:52.338Z,3.30
2024-04-18T18:11:57.066Z,4.25
2024-04-18T18:15:04.575Z,5.10
2024-04-18T18:18:10.886Z,6.13
2024-04-18T18:21:15.650Z,7.85
2024-04-18T18:24:20.305Z,5.38
2024-04-18T18:27:24.950Z,6.10
2024-04-18T18:30:29.655Z,2.57
2024-04-18T18:33:34.345Z,2.25
2024-04-18T18:36:36.882Z,3.33
2024-04-18T18:39:41.902Z,4.07
2024-04-18T18:42:47.598Z,3.33
2024-04-18T18:45:55.378Z,5.20
2024-04-18T18:49:00.074Z,3.33
2024-04-18T18:52:04.866Z,3.28
2024-04-18T18:55:09.737Z,4.18
2024-04-18T18:58:11.822Z,3.72
2024-04-18T19:01:19.119Z,4.43
2024-04-18T19:04:21.448Z,2.53
2024-04-18T19:07:26.262Z,4.50
2024-04-18T19:10:28.559Z,2.92
2024-04-18T19:13:33.397Z,2.92
2024-04-18T19:16:40.656Z,2.87
2024-04-18T19:19:42.701Z,3.63
2024-04-18T19:22:48.199Z,2.97
2024-04-18T19:25:52.906Z,3.15
2024-04-18T19:28:55.089Z,4.03
2024-04-18T19:32:02.671Z,2.53
2024-04-18T19:35:05.488Z,3.25
2024-04-18T19:38:10.013Z,3.30
2024-04-18T19:41:12.306Z,2.42
2024-04-18T19:44:16.815Z,2.75
2024-04-18T19:47:24.316Z,2.10
2024-04-18T19:50:28.908Z,3.30
2024-04-18T19:53:30.973Z,2.65
2024-04-18T19:56:35.705Z,5.30
2024-04-18T19:59:41.591Z,3.72
2024-04-18T20:02:49.043Z,3.17
2024-04-18T20:05:53.557Z,3.25
2024-04-18T20:08:55.586Z,3.30
2024-04-18T20:12:01.551Z,5.18
2024-04-18T20:15:04.138Z,2.75
2024-04-18T20:18:11.540Z,3.83
2024-04-18T20:21:16.842Z,3.30
2024-04-18T20:24:21.554Z,3.30
2024-04-18T20:27:26.937Z,4.03
2024-04-18T20:30:31.591Z,4.25
2024-04-18T20:33:36.232Z,3.90
2024-04-18T20:36:40.877Z,3.08
2024-04-18T20:39:43.166Z,4.97
2024-04-18T20:42:48.630Z,2.80
2024-04-18T20:45:58.231Z,3.10
2024-04-18T20:49:03.401Z,2.83
2024-04-18T20:52:08.493Z,3.55
2024-04-18T20:55:13.182Z,4.00
2024-04-18T20:58:15.078Z,3.33
2024-04-18T21:01:20.050Z,3.60
2024-04-18T21:04:24.800Z,4.70
2024-04-18T21:07:29.501Z,3.28
2024-04-18T21:10:31.511Z,4.30
2024-04-18T21:13:36.191Z,4.43
2024-04-18T21:16:38.111Z,5.93
2024-04-18T21:19:45.381Z,3.83
2024-04-18T21:22:49.389Z,3.45
2024-04-18T21:25:54.064Z,3.67
2024-04-18T21:28:57.040Z,4.07
2024-04-18T21:32:01.719Z,3.40
2024-04-18T21:35:06.987Z,3.40
2024-04-18T21:38:11.661Z,3.97
2024-04-18T21:41:16.234Z,3.85
2024-04-18T21:44:18.328Z,2.57
2024-04-18T21:47:22.893Z,4.07
2024-04-18T21:50:27.578Z,3.22
2024-04-18T21:53:32.211Z,4.53
2024-04-18T21:56:34.117Z,3.55
2024-04-18T21:59:38.908Z,4.10
2024-04-18T22:02:41.083Z,3.80
2024-04-18T22:05:48.673Z,3.55
2024-04-18T22:08:53.493Z,3.47
2024-04-18T22:11:58.215Z,3.75
2024-04-18T22:15:00.523Z,5.37
2024-04-18T22:18:06.020Z,4.00
2024-04-18T22:21:14.021Z,3.85
2024-04-18T22:24:18.754Z,3.67
2024-04-18T22:27:23.315Z,3.25
2024-04-18T22:30:25.431Z,4.37
2024-04-18T22:33:31.101Z,3.13
2024-04-18T22:36:38.466Z,3.33
2024-04-18T22:39:40.464Z,4.70
2024-04-18T22:42:45.237Z,3.17
2024-04-18T22:45:47.285Z,4.00
2024-04-18T22:48:52.257Z,3.33
2024-04-18T22:51:59.526Z,3.35
2024-04-18T22:55:04.164Z,6.05
2024-04-18T22:58:08.066Z,4.72
2024-04-18T23:01:12.956Z,4.67
2024-04-18T23:04:15.203Z,4.43
2024-04-18T23:07:22.631Z,4.88
2024-04-18T23:10:24.574Z,5.07
2024-04-18T23:13:29.228Z,5.28
2024-04-18T23:16:33.920Z,4.60
2024-04-18T23:19:38.520Z,4.77
2024-04-18T23:22:43.256Z,5.10
2024-04-18T23:25:47.872Z,4.50
2024-04-18T23:28:52.531Z,3.85
2024-04-18T23:31:54.513Z,7.17
2024-04-18T23:34:59.586Z,3.83
2024-04-18T23:38:04.498Z,3.63
2024-04-18T23:41:09.069Z,3.13
2024-04-18T23:44:11.309Z,3.47
2024-04-18T23:47:15.905Z,4.97
2024-04-18T23:50:48.510Z,4.23
2024-04-18T23:53:56.407Z,4.20
2024-04-18T23:57:00.970Z,2.80
